Pagrindinis puslapis
METAR-TAF:

METAR-TAF

Oro uostai :

Al-`Ula, Saudo Arabija

platuma: 26-29-00N, ilguma: 038-07-01E, Aukštis: 624 m

Dabartinis oras

Ataskaita buvo paskelbta 24 minutes, ne 16:00 UTC
Vėjas 10 kt iš Vakarų/Pietvakarių
Temperatūra 37°C
Drėgmė 14%
Slėgis 1007 hPa
Matomumas 10 km arba daugiau
nėra debesų žemiau 1500 m ir nėra kamuolinių lietaus debesų

METAR: OEAO 161600Z 24010KT CAVOK 37/05 Q1007

Laikas: 19:24 (16:24 UTC)

Prognozė

Ataskaita buvo paskelbta 5 valandos ir 24 minutes, ne 11:00 UTC
Prognozė galioja nuo 16 metu 12 UTC su 17 metu 18 UTC
Vėjas 14 kt iš Pietų/Pietvakarių
Matomumas: 7000 m
Tapsmas
nuo 16 metu 18 UTC su 16 metu 20 UTC
Vėjas 6 kt iš Vakarų

TAF: OEAO 161100Z 1612/1718 20014KT 7000 NSC BECMG 1618/1620 26006KT

Orai ataskaitas ir orų prognozės (METAR, TAF).

turimą stotys yra geltonos ir raudonos taškus žemėlapyje.

Perkelti pele per norėdami pamatyti stoties vardą.

Tada spustelėkite, norėdami matyti oro stebėjimo ir prognozės.

Norėdami pakeisti žemėlapį: spustelėkite ant žalios mygtukų su juodo kryžiaus žemyn,; žalią mygtuką su brūkšneliu, jei norite nutolinti; arba žalių rodyklių gretimoms žemėlapius.


METAR-TAF: